Austin, Texas
Traffic Map
Current Weather Conditions
Austin, Texas
Clear
Clear
64°
Feels Like: 64°
Wind Chill: 64° Ceiling: Unl
Heat Index: 64° Visibility: 10mi
Dew Point: 58° Wind: 0mph
Humidity: 80% Direction: ° ()
Pressure: 30.14in Gusts: 0mph
Raw Report DataKATT 250851Z AUTO 00000KT 10SM CLR 18/14 A3014 RMK AO2 SLP196 T01780144 58005
Traffic Incident Summary
Active as of:
Severity:
Category:
InformationThere was an issue retrieving the traffic information for this location. Please try a different location or try again shortly.
Advertisements
Track Severe Weather on mobile